createdAt,value
2023-04-01T00:01:16.108Z,99002.84
2023-04-01T00:03:43.012Z,99005.41
2023-04-01T00:06:12.290Z,99004.53
2023-04-01T00:08:38.747Z,99009.75
2023-04-01T00:11:05.308Z,99012.44
2023-04-01T00:13:31.799Z,99008.13
2023-04-01T00:15:59.948Z,99014.31
2023-04-01T00:18:26.720Z,99017.78
2023-04-01T00:20:53.902Z,99012.59
2023-04-01T00:23:21.168Z,99013.47
2023-04-01T00:25:49.119Z,99015.25
2023-04-01T00:28:20.289Z,99018.88
2023-04-01T00:30:47.248Z,99014.53
2023-04-01T00:33:14.205Z,99012.81
2023-04-01T00:35:41.424Z,99026.84
2023-04-01T00:38:07.863Z,99022.44
2023-04-01T00:40:42.867Z,99018.91
2023-04-01T00:43:13.328Z,99021.44
2023-04-01T00:45:43.270Z,99025.75
2023-04-01T00:48:17.270Z,99022.34
2023-04-01T00:50:49.381Z,99020.75
2023-04-01T00:53:17.131Z,99028.66
2023-04-01T00:55:51.690Z,99030.44
2023-04-01T00:58:22.291Z,99031.31
2023-04-01T01:00:51.709Z,99031.31
2023-04-01T01:03:18.443Z,99020.84
2023-04-01T01:05:58.180Z,99029.56
2023-04-01T01:08:31.383Z,99030.50
2023-04-01T01:10:58.248Z,99027.03
2023-04-01T01:13:40.242Z,99038.41
2023-04-01T01:16:35.188Z,99033.28
2023-04-01T01:19:23.486Z,99036.91
2023-04-01T01:22:24.059Z,99037.78
2023-04-01T01:25:07.330Z,99033.47
2023-04-01T01:27:36.945Z,99037.06
2023-04-01T01:30:22.078Z,99038.81
2023-04-01T01:33:17.521Z,99045.06
2023-04-01T01:35:52.370Z,99039.00
2023-04-01T01:38:23.497Z,99044.28
2023-04-01T01:40:57.537Z,99036.38
2023-04-01T01:43:29.424Z,99050.28
2023-04-01T01:46:00.671Z,99045.91
2023-04-01T01:48:32.756Z,99045.91
2023-04-01T01:50:59.701Z,99052.94
2023-04-01T01:53:26.289Z,99046.91
2023-04-01T01:55:53.058Z,99049.53
2023-04-01T01:58:33.555Z,99048.66
2023-04-01T02:01:02.297Z,99048.72
2023-04-01T02:03:33.922Z,99050.41
2023-04-01T02:06:02.344Z,99051.28
2023-04-01T02:08:58.375Z,99053.00
2023-04-01T02:11:46.492Z,99062.59
2023-04-01T02:14:18.886Z,99058.28
2023-04-01T02:16:58.650Z,99064.44
2023-04-01T02:19:31.879Z,99071.38
2023-04-01T02:22:01.907Z,99066.13
2023-04-01T02:24:31.655Z,99067.91
2023-04-01T02:26:58.498Z,99074.00
2023-04-01T02:29:26.684Z,99074.09
2023-04-01T02:31:54.666Z,99075.78
2023-04-01T02:34:23.692Z,99074.88
2023-04-01T02:36:51.345Z,99077.47
2023-04-01T02:39:18.626Z,99078.34
2023-04-01T02:41:46.923Z,99079.13
2023-04-01T02:44:16.060Z,99082.56
2023-04-01T02:46:42.880Z,99087.78
2023-04-01T02:49:09.407Z,99084.28
2023-04-01T02:51:36.026Z,99092.09
2023-04-01T02:54:03.149Z,99094.72
2023-04-01T02:56:29.584Z,99090.34
2023-04-01T02:58:56.198Z,99098.22
2023-04-01T03:01:23.594Z,99097.34
2023-04-01T03:03:50.099Z,99103.53
2023-04-01T03:06:17.952Z,99108.78
2023-04-01T03:08:44.863Z,99114.09
2023-04-01T03:11:12.080Z,99119.28
2023-04-01T03:13:38.609Z,99127.09
2023-04-01T03:16:05.510Z,99130.56
2023-04-01T03:18:32.128Z,99110.56
2023-04-01T03:20:58.644Z,99118.38
2023-04-01T03:23:25.252Z,99136.53
2023-04-01T03:25:51.847Z,99133.03
2023-04-01T03:28:18.311Z,99140.78
2023-04-01T03:30:44.959Z,99149.53
2023-04-01T03:33:14.173Z,99146.91
2023-04-01T03:35:40.853Z,99151.28
2023-04-01T03:38:07.316Z,99149.56
2023-04-01T03:40:34.109Z,99154.75
2023-04-01T03:43:00.846Z,99152.06
2023-04-01T03:45:27.394Z,99159.94
2023-04-01T03:47:54.738Z,99158.19
2023-04-01T03:50:21.191Z,99162.47
2023-04-01T03:52:47.722Z,99174.75
2023-04-01T03:55:14.267Z,99169.47
2023-04-01T03:57:40.688Z,99174.78
2023-04-01T04:00:10.425Z,99171.41
2023-04-01T04:02:37.066Z,99182.97
2023-04-01T04:05:03.763Z,99184.81
2023-04-01T04:07:30.457Z,99188.38
2023-04-01T04:09:56.872Z,99191.97
2023-04-01T04:12:23.301Z,99204.34
2023-04-01T04:14:49.733Z,99205.31
2023-04-01T04:17:17.289Z,99215.78
2023-04-01T04:19:46.728Z,99215.06
2023-04-01T04:22:13.173Z,99211.56
2023-04-01T04:24:39.558Z,99219.47
2023-04-01T04:27:06.190Z,99217.69
2023-04-01T04:29:32.609Z,99218.56
2023-04-01T04:31:59.124Z,99231.69
2023-04-01T04:34:25.602Z,99235.16
2023-04-01T04:36:52.131Z,99242.13
2023-04-01T04:39:18.749Z,99242.13
2023-04-01T04:41:45.291Z,99246.50
2023-04-01T04:44:11.814Z,99251.69
2023-04-01T04:46:40.242Z,99254.34
2023-04-01T04:49:07.308Z,99261.28
2023-04-01T04:51:36.927Z,99264.78
2023-04-01T04:54:05.083Z,99269.16
2023-04-01T04:56:32.333Z,99270.00
2023-04-01T04:58:59.188Z,99280.47
2023-04-01T05:01:26.028Z,99284.00
2023-04-01T05:03:52.660Z,99287.41
2023-04-01T05:06:26.588Z,99291.81
2023-04-01T05:08:52.998Z,99297.88
2023-04-01T05:11:21.332Z,99307.47
2023-04-01T05:13:48.094Z,99304.94
2023-04-01T05:16:17.768Z,99308.50
2023-04-01T05:18:44.889Z,99308.50
2023-04-01T05:21:13.463Z,99310.25
2023-04-01T05:23:40.269Z,99316.38
2023-04-01T05:26:08.787Z,99316.38
2023-04-01T05:28:35.275Z,99321.63
2023-04-01T05:31:02.970Z,99322.56
2023-04-01T05:33:30.686Z,99326.09
2023-04-01T05:35:57.745Z,99330.44
2023-04-01T05:38:24.189Z,99333.06
2023-04-01T05:40:50.560Z,99345.34
2023-04-01T05:43:16.963Z,99346.19
2023-04-01T05:45:43.404Z,99345.34
2023-04-01T05:48:09.824Z,99363.75
2023-04-01T05:50:36.208Z,99365.56
2023-04-01T05:53:02.572Z,99355.03
2023-04-01T05:55:28.942Z,99370.81
2023-04-01T05:57:55.534Z,99369.91
2023-04-01T06:00:22.157Z,99369.03
2023-04-01T06:02:48.766Z,99372.59
2023-04-01T06:05:22.533Z,99373.44
2023-04-01T06:07:49.236Z,99377.78
2023-04-01T06:10:20.716Z,99373.44
2023-04-01T06:13:11.801Z,99390.13
2023-04-01T06:15:43.022Z,99390.16
2023-04-01T06:18:35.541Z,99398.84
2023-04-01T06:21:01.986Z,99399.69
2023-04-01T06:23:31.416Z,99412.91
2023-04-01T06:26:19.270Z,99413.78
2023-04-01T06:29:05.684Z,99421.69
2023-04-01T06:31:44.375Z,99425.06
2023-04-01T06:34:36.462Z,99432.94
2023-04-01T06:37:23.325Z,99434.66
2023-04-01T06:39:59.541Z,99444.19
2023-04-01T06:42:36.065Z,99449.41
2023-04-01T06:45:29.586Z,99445.91
2023-04-01T06:48:08.099Z,99459.84
2023-04-01T06:50:53.054Z,99462.34
2023-04-01T06:53:32.536Z,99464.13
2023-04-01T06:56:05.447Z,99467.59
2023-04-01T06:58:37.628Z,99467.59
2023-04-01T07:01:14.375Z,99467.59
2023-04-01T07:04:14.058Z,99473.78
2023-04-01T07:06:53.582Z,99482.56
2023-04-01T07:09:29.974Z,99487.88
2023-04-01T07:12:03.202Z,99489.72
2023-04-01T07:14:38.442Z,99493.25
2023-04-01T07:17:29.345Z,99496.72
2023-04-01T07:20:20.748Z,99501.13
2023-04-01T07:22:50.631Z,99505.47
2023-04-01T07:25:30.839Z,99517.69
2023-04-01T07:28:03.676Z,99511.63
2023-04-01T07:30:40.677Z,99506.44
2023-04-01T07:33:20.779Z,99527.34
2023-04-01T07:35:49.070Z,99530.03
2023-04-01T07:38:20.321Z,99539.69
2023-04-01T07:40:54.356Z,99540.53
2023-04-01T07:44:05.700Z,99540.53
2023-04-01T07:47:07.913Z,99535.22
2023-04-01T07:49:58.583Z,99545.59
2023-04-01T07:52:37.350Z,99549.84
2023-04-01T07:55:15.457Z,99546.28
2023-04-01T07:57:54.330Z,99557.56
2023-04-01T08:00:59.191Z,99561.88
2023-04-01T08:04:13.844Z,99569.72
2023-04-01T08:07:14.085Z,99573.16
2023-04-01T08:10:03.805Z,99581.00
2023-04-01T08:12:59.347Z,99584.53
2023-04-01T08:15:46.732Z,99586.19
2023-04-01T08:18:47.828Z,99593.09
2023-04-01T08:21:14.217Z,99599.22
2023-04-01T08:23:46.990Z,99600.09
2023-04-01T08:26:42.161Z,99605.34
2023-04-01T08:29:17.578Z,99609.69
2023-04-01T08:31:52.820Z,99600.88
2023-04-01T08:34:24.192Z,99617.44
2023-04-01T08:37:05.432Z,99621.75
2023-04-01T08:39:38.203Z,99620.88
2023-04-01T08:42:33.176Z,99627.84
2023-04-01T08:45:27.126Z,99625.28
2023-04-01T08:48:31.106Z,99634.94
2023-04-01T08:51:24.950Z,99643.69
2023-04-01T08:54:13.371Z,99643.72
2023-04-01T08:57:01.190Z,99633.25
2023-04-01T08:59:46.530Z,99653.44
2023-04-01T09:02:52.311Z,99654.34
2023-04-01T09:05:37.809Z,99661.31
2023-04-01T09:08:30.056Z,99663.94
2023-04-01T09:11:24.401Z,99664.00
2023-04-01T09:13:53.800Z,99663.09
2023-04-01T09:16:32.050Z,99662.22
2023-04-01T09:19:32.405Z,99663.16
2023-04-01T09:22:26.888Z,99668.44
2023-04-01T09:25:39.734Z,99676.38
2023-04-01T09:28:28.733Z,99673.75
2023-04-01T09:31:41.534Z,99687.72
2023-04-01T09:34:45.751Z,99685.09
2023-04-01T09:37:19.346Z,99697.34
2023-04-01T09:40:00.050Z,99696.34
2023-04-01T09:42:57.363Z,99700.66
2023-04-01T09:45:49.509Z,99711.06
2023-04-01T09:48:24.939Z,99716.22
2023-04-01T09:51:06.929Z,99718.72
2023-04-01T09:53:39.069Z,99715.13
2023-04-01T09:56:24.665Z,99716.84
2023-04-01T09:58:56.976Z,99717.63
2023-04-01T10:01:44.688Z,99726.22
2023-04-01T10:04:14.044Z,99706.88
2023-04-01T10:07:13.309Z,99734.75
2023-04-01T10:10:04.024Z,99738.19
2023-04-01T10:12:46.858Z,99738.16
2023-04-01T10:15:58.714Z,99745.16
2023-04-01T10:19:04.996Z,99743.38
2023-04-01T10:21:59.456Z,99745.94
2023-04-01T10:24:56.940Z,99745.03
2023-04-01T10:27:41.898Z,99745.84
2023-04-01T10:30:42.570Z,99751.88
2023-04-01T10:33:36.504Z,99754.31
2023-04-01T10:36:24.429Z,99753.97
2023-04-01T10:39:06.000Z,99765.13
2023-04-01T10:42:09.242Z,99764.03
2023-04-01T10:45:03.257Z,99758.59
2023-04-01T10:47:52.012Z,99761.16
2023-04-01T10:50:26.297Z,99763.88
2023-04-01T10:52:58.800Z,99776.25
2023-04-01T10:56:02.119Z,99774.56
2023-04-01T10:58:57.994Z,99780.69
2023-04-01T11:01:30.651Z,99780.63
2023-04-01T11:04:34.574Z,99780.56
2023-04-01T11:07:10.297Z,99783.03
2023-04-01T11:10:17.696Z,99778.47
2023-04-01T11:12:59.083Z,99785.38
2023-04-01T11:15:45.943Z,99784.38
2023-04-01T11:18:51.956Z,99788.66
2023-04-01T11:21:18.288Z,99798.34
2023-04-01T11:24:04.345Z,99802.94
2023-04-01T11:27:04.116Z,99802.97
2023-04-01T11:29:58.649Z,99807.34
2023-04-01T11:32:55.270Z,99811.78
2023-04-01T11:35:28.975Z,99810.84
2023-04-01T11:38:20.708Z,99804.84
2023-04-01T11:41:08.937Z,99826.66
2023-04-01T11:43:50.634Z,99830.16
2023-04-01T11:46:47.950Z,99835.44
2023-04-01T11:49:46.228Z,99836.28
2023-04-01T11:52:34.647Z,99846.78
2023-04-01T11:55:28.838Z,99841.56
2023-04-01T11:58:20.373Z,99847.81
2023-04-01T12:01:03.557Z,99851.31
2023-04-01T12:03:56.502Z,99859.19
2023-04-01T12:06:44.230Z,99857.47
2023-04-01T12:09:25.630Z,99863.66
2023-04-01T12:12:29.224Z,99869.84
2023-04-01T12:15:31.285Z,99866.50
2023-04-01T12:18:10.681Z,99872.94
2023-04-01T12:20:55.211Z,99877.47
2023-04-01T12:23:58.004Z,99895.22
2023-04-01T12:26:42.929Z,99885.66
2023-04-01T12:29:25.252Z,99896.22
2023-04-01T12:32:11.061Z,99897.19
2023-04-01T12:35:03.317Z,99904.22
2023-04-01T12:38:07.208Z,99904.09
2023-04-01T12:40:39.715Z,99907.59
2023-04-01T12:43:23.650Z,99898.94
2023-04-01T12:46:04.537Z,99913.59
2023-04-01T12:48:59.103Z,99913.41
2023-04-01T12:51:58.863Z,99917.56
2023-04-01T12:55:00.702Z,99918.47
2023-04-01T12:57:52.698Z,99920.25
2023-04-01T13:00:28.186Z,99922.84
2023-04-01T13:03:15.323Z,99936.94
2023-04-01T13:06:32.894Z,99931.72
2023-04-01T13:09:18.175Z,99939.72
2023-04-01T13:12:15.502Z,99945.03
2023-04-01T13:15:10.449Z,99951.34
2023-04-01T13:17:54.131Z,99948.84
2023-04-01T13:20:44.158Z,99965.59
2023-04-01T13:23:44.231Z,99967.47
2023-04-01T13:26:38.714Z,99950.97
2023-04-01T13:29:20.300Z,99973.72
2023-04-01T13:31:49.992Z,99972.97
2023-04-01T13:34:33.347Z,99973.88
2023-04-01T13:37:11.528Z,99992.34
2023-04-01T13:39:53.378Z,99976.56
2023-04-01T13:42:37.775Z,99982.72
2023-04-01T13:45:31.327Z,99990.66
2023-04-01T13:48:32.787Z,99995.91
2023-04-01T13:51:11.560Z,99995.97
2023-04-01T13:53:54.384Z,100003.06
2023-04-01T13:56:49.281Z,100017.97
2023-04-01T13:59:34.033Z,100015.44
2023-04-01T14:02:34.713Z,100010.16
2023-04-01T14:05:13.901Z,100023.34
2023-04-01T14:07:50.412Z,100031.22
2023-04-01T14:10:32.466Z,100029.41
2023-04-01T14:13:32.878Z,100034.63
2023-04-01T14:16:49.270Z,100034.69
2023-04-01T14:19:40.831Z,100043.44
2023-04-01T14:22:23.576Z,100049.59
2023-04-01T14:25:01.878Z,100051.44
2023-04-01T14:28:01.943Z,100059.34
2023-04-01T14:30:51.573Z,100061.06
2023-04-01T14:33:38.936Z,100068.06
2023-04-01T14:36:39.255Z,100070.59
2023-04-01T14:39:40.246Z,100074.06
2023-04-01T14:42:28.102Z,100074.97
2023-04-01T14:44:57.415Z,100091.72
2023-04-01T14:47:37.389Z,100092.63
2023-04-01T14:50:14.404Z,100091.78
2023-04-01T14:52:44.437Z,100098.81
2023-04-01T14:55:39.921Z,100104.16
2023-04-01T14:58:12.754Z,100108.63
2023-04-01T15:01:14.798Z,100116.56
2023-04-01T15:04:30.431Z,100121.81
2023-04-01T15:07:43.330Z,100125.38
2023-04-01T15:10:36.702Z,100122.81
2023-04-01T15:13:15.433Z,100143.91
2023-04-01T15:16:09.543Z,100148.31
2023-04-01T15:18:49.291Z,100147.47
2023-04-01T15:21:34.959Z,100156.25
2023-04-01T15:24:14.636Z,100164.13
2023-04-01T15:26:51.167Z,100167.63
2023-04-01T15:29:55.457Z,100167.59
2023-04-01T15:32:47.203Z,100172.88
2023-04-01T15:35:39.840Z,100178.13
2023-04-01T15:38:39.387Z,100190.44
2023-04-01T15:41:16.182Z,100188.69
2023-04-01T15:43:46.888Z,100198.38
2023-04-01T15:46:25.549Z,100204.53
2023-04-01T15:49:04.261Z,100203.72
2023-04-01T15:51:59.450Z,100216.06
2023-04-01T15:54:47.646Z,100216.09
2023-04-01T15:57:32.057Z,100216.09
2023-04-01T16:00:28.177Z,100232.75
2023-04-01T16:03:26.012Z,100231.88
2023-04-01T16:06:01.240Z,100250.31
2023-04-01T16:09:08.663Z,100255.59
2023-04-01T16:11:48.505Z,100260.84
2023-04-01T16:14:56.906Z,100256.47
2023-04-01T16:18:05.602Z,100258.25
2023-04-01T16:20:55.163Z,100266.97
2023-04-01T16:23:21.731Z,100273.16
2023-04-01T16:26:23.141Z,100282.88
2023-04-01T16:29:13.348Z,100294.31
2023-04-01T16:31:48.830Z,100298.75
2023-04-01T16:34:33.808Z,100304.88
2023-04-01T16:37:13.796Z,100311.06
2023-04-01T16:40:17.287Z,100317.22
2023-04-01T16:42:54.133Z,100318.13
2023-04-01T16:45:29.721Z,100324.28
2023-04-01T16:48:06.532Z,100330.41
2023-04-01T16:50:50.043Z,100334.81
2023-04-01T16:53:41.526Z,100341.81
2023-04-01T16:56:15.429Z,100346.22
2023-04-01T16:59:07.750Z,100356.75
2023-04-01T17:02:08.146Z,100369.00
2023-04-01T17:04:41.524Z,100372.53
2023-04-01T17:07:31.807Z,100376.94
2023-04-01T17:10:26.207Z,100389.19
2023-04-01T17:13:14.492Z,100390.06
2023-04-01T17:15:58.639Z,100400.59
2023-04-01T17:18:53.733Z,100412.88
2023-04-01T17:21:48.922Z,100414.59
2023-04-01T17:24:36.672Z,100420.72
2023-04-01T17:27:14.373Z,100433.88
2023-04-01T17:30:02.518Z,100435.59
2023-04-01T17:32:57.971Z,100433.84
2023-04-01T17:35:36.234Z,100445.22
2023-04-01T17:38:11.381Z,100451.34
2023-04-01T17:40:51.725Z,100462.72
2023-04-01T17:43:31.109Z,100467.97
2023-04-01T17:46:01.717Z,100468.88
2023-04-01T17:48:34.327Z,100480.25
2023-04-01T17:51:00.694Z,100483.72
2023-04-01T17:53:52.690Z,100489.84
2023-04-01T17:56:30.224Z,100497.75
2023-04-01T17:59:05.801Z,100508.22
2023-04-01T18:01:41.131Z,100497.75
2023-04-01T18:04:10.317Z,100518.75
2023-04-01T18:07:05.850Z,100523.13
2023-04-01T18:10:04.368Z,100521.38
2023-04-01T18:13:09.379Z,100531.03
2023-04-01T18:16:03.517Z,100538.88
2023-04-01T18:18:39.112Z,100543.25
2023-04-01T18:21:19.967Z,100554.66
2023-04-01T18:24:02.146Z,100565.13
2023-04-01T18:26:34.516Z,100570.31
2023-04-01T18:29:41.242Z,100583.44
2023-04-01T18:32:13.538Z,100581.69
2023-04-01T18:35:18.657Z,100593.03
2023-04-01T18:37:47.874Z,100600.91
2023-04-01T18:40:30.965Z,100599.16
2023-04-01T18:43:11.216Z,100612.28
2023-04-01T18:45:42.315Z,100628.94
2023-04-01T18:48:22.800Z,100627.16
2023-04-01T18:50:57.802Z,100639.38
2023-04-01T18:53:37.165Z,100644.63
2023-04-01T18:56:07.748Z,100646.38
2023-04-01T18:58:59.257Z,100656.00
2023-04-01T19:01:38.890Z,100665.56
2023-04-01T19:04:20.070Z,100669.91
2023-04-01T19:06:52.764Z,100682.16
2023-04-01T19:09:29.207Z,100677.78
2023-04-01T19:12:19.516Z,100683.00
2023-04-01T19:15:10.376Z,100699.59
2023-04-01T19:18:03.424Z,100696.88
2023-04-01T19:20:58.338Z,100710.84
2023-04-01T19:23:48.870Z,100723.03
2023-04-01T19:26:34.710Z,100722.16
2023-04-01T19:29:18.229Z,100719.50
2023-04-01T19:32:08.355Z,100737.84
2023-04-01T19:35:13.522Z,100735.22
2023-04-01T19:37:58.937Z,100751.81
2023-04-01T19:40:31.042Z,100748.22
2023-04-01T19:42:57.412Z,100749.09
2023-04-01T19:45:49.503Z,100734.97
2023-04-01T19:48:18.614Z,100770.06
2023-04-01T19:50:58.187Z,100774.41
2023-04-01T19:53:49.480Z,100770.88
2023-04-01T19:56:20.069Z,100788.31
2023-04-01T19:59:13.806Z,100794.41
2023-04-01T20:02:02.867Z,100807.56
2023-04-01T20:04:40.380Z,100804.91
2023-04-01T20:07:20.481Z,100812.78
2023-04-01T20:10:10.829Z,100824.09
2023-04-01T20:12:48.840Z,100830.22
2023-04-01T20:15:47.630Z,100835.47
2023-04-01T20:18:21.989Z,100836.31
2023-04-01T20:21:03.038Z,100841.59
2023-04-01T20:23:43.980Z,100859.03
2023-04-01T20:26:13.904Z,100852.81
2023-04-01T20:29:05.474Z,100859.81
2023-04-01T20:31:43.233Z,100865.81
2023-04-01T20:34:24.076Z,100879.75
2023-04-01T20:37:31.675Z,100880.56
2023-04-01T20:40:09.965Z,100891.03
2023-04-01T20:43:03.046Z,100890.16
2023-04-01T20:45:53.532Z,100904.09
2023-04-01T20:48:51.506Z,100907.53
2023-04-01T20:51:24.380Z,100921.53
2023-04-01T20:54:17.047Z,100929.41
2023-04-01T20:56:49.297Z,100925.00
2023-04-01T20:59:42.326Z,100920.59
2023-04-01T21:02:20.718Z,100933.72
2023-04-01T21:05:08.891Z,100940.63
2023-04-01T21:07:50.729Z,100943.19
2023-04-01T21:10:42.423Z,100957.97
2023-04-01T21:13:30.314Z,100963.22
2023-04-01T21:16:29.355Z,100957.06
2023-04-01T21:19:14.605Z,100965.75
2023-04-01T21:22:13.363Z,100984.00
2023-04-01T21:24:48.732Z,100983.97
2023-04-01T21:27:15.049Z,100987.41
2023-04-01T21:30:17.427Z,100992.69
2023-04-01T21:33:14.726Z,100994.50
2023-04-01T21:36:02.351Z,101004.13
2023-04-01T21:38:44.081Z,101014.53
2023-04-01T21:41:28.138Z,101012.84
2023-04-01T21:44:23.139Z,101019.88
2023-04-01T21:47:05.088Z,101026.75
2023-04-01T21:49:56.546Z,101033.69
2023-04-01T21:52:53.746Z,101034.50
2023-04-01T21:55:55.627Z,101043.13
2023-04-01T21:58:48.197Z,101055.28
2023-04-01T22:01:40.940Z,101056.06
2023-04-01T22:04:33.503Z,101058.63
2023-04-01T22:07:17.361Z,101067.31
2023-04-01T22:10:19.004Z,101070.69
2023-04-01T22:13:00.372Z,101064.53
2023-04-01T22:15:50.681Z,101072.41
2023-04-01T22:18:29.852Z,101089.00
2023-04-01T22:20:58.352Z,101087.22
2023-04-01T22:23:36.510Z,101101.22
2023-04-01T22:26:32.647Z,101102.16
2023-04-01T22:29:11.854Z,101098.66
2023-04-01T22:32:06.423Z,101116.09
2023-04-01T22:34:46.332Z,101113.47
2023-04-01T22:37:52.181Z,101112.69
2023-04-01T22:40:46.754Z,101124.03
2023-04-01T22:43:29.907Z,101123.94
2023-04-01T22:46:30.182Z,101138.81
2023-04-01T22:49:10.564Z,101142.22
2023-04-01T22:51:56.052Z,101146.47
2023-04-01T22:54:46.296Z,101148.16
2023-04-01T22:57:39.347Z,101150.72
2023-04-01T23:00:09.132Z,101151.63
2023-04-01T23:02:43.459Z,101162.06
2023-04-01T23:05:18.482Z,101162.91
2023-04-01T23:07:53.975Z,101168.09
2023-04-01T23:10:31.135Z,101168.78
2023-04-01T23:13:01.399Z,101187.94
2023-04-01T23:15:29.298Z,101184.50
2023-04-01T23:18:16.070Z,101188.88
2023-04-01T23:20:51.443Z,101196.72
2023-04-01T23:23:26.636Z,101196.78
2023-04-01T23:26:24.047Z,101199.41
2023-04-01T23:28:57.958Z,101204.63
2023-04-01T23:31:27.531Z,101214.22
2023-04-01T23:34:00.774Z,101217.66
2023-04-01T23:36:28.997Z,101221.16
2023-04-01T23:38:55.996Z,101215.03
2023-04-01T23:41:31.213Z,101217.66
2023-04-01T23:44:12.337Z,101234.13
2023-04-01T23:46:41.028Z,101241.09
2023-04-01T23:49:18.177Z,101235.91
2023-04-01T23:51:53.080Z,101242.84
2023-04-01T23:54:30.202Z,101238.41
2023-04-01T23:56:57.629Z,101252.31
2023-04-01T23:59:33.144Z,101255.78
